Snoqualmie River: Middle Fork station

back to: Snoqualmie river
Middle Fork station Summary - (NOAA Hydrograph: TANW1)
Latest reading:
Sun12/17 05:15 am 2.32 ft 516 cfs (+28/hr)
Past 24hr max:
Sat12/16 05:45 am 2.41 ft 551 cfs
Forecasted crests: (published Sat 12/16/17 03:15 pm)
Mon12/18 04:00 am 7.77 ft 6539 cfs
Tue12/19 10:00 pm 7.23 ft 5467 cfs

Middle Fork station Details

Latest Readings

Last 100 Readings:
Sun12/17 05:15 am 2.32 ft 516 cfs
Sun12/17 05:00 am 2.3 ft 509 cfs
Sun12/17 04:45 am 2.29 ft 505 cfs
Sun12/17 04:30 am 2.29 ft 505 cfs
Sun12/17 04:15 am 2.31 ft 512 cfs
Sun12/17 04:00 am 2.29 ft 505 cfs
Sun12/17 03:45 am 2.29 ft 505 cfs
Sun12/17 03:30 am 2.31 ft 512 cfs
Sun12/17 03:15 am 2.29 ft 505 cfs
Sun12/17 03:00 am 2.31 ft 512 cfs
Sun12/17 02:45 am 2.3 ft 509 cfs
Sun12/17 02:30 am 2.3 ft 509 cfs
Sun12/17 02:15 am 2.3 ft 509 cfs
Sun12/17 02:00 am 2.29 ft 505 cfs
Sun12/17 01:45 am 2.3 ft 509 cfs
Sun12/17 01:30 am 2.28 ft 501 cfs
Sun12/17 01:15 am 2.3 ft 509 cfs
Sun12/17 01:00 am 2.3 ft 509 cfs
Sun12/17 12:45 am 2.29 ft 505 cfs
Sun12/17 12:30 am 2.28 ft 501 cfs
Sun12/17 12:15 am 2.31 ft 512 cfs
Sun12/17 12:00 am 2.28 ft 501 cfs
Sat12/16 11:45 pm 2.3 ft 509 cfs
Sat12/16 11:30 pm 2.3 ft 509 cfs
Sat12/16 11:15 pm 2.27 ft 498 cfs
Sat12/16 11:00 pm 2.29 ft 505 cfs
Sat12/16 10:45 pm 2.31 ft 512 cfs
Sat12/16 10:30 pm 2.29 ft 505 cfs
Sat12/16 10:15 pm 2.32 ft 516 cfs
Sat12/16 10:00 pm 2.28 ft 501 cfs
Sat12/16 09:45 pm 2.34 ft 523 cfs
Sat12/16 09:30 pm 2.31 ft 512 cfs
Sat12/16 09:15 pm 2.3 ft 509 cfs
Sat12/16 09:00 pm 2.3 ft 509 cfs
Sat12/16 08:45 pm 2.31 ft 512 cfs
Sat12/16 08:30 pm 2.32 ft 516 cfs
Sat12/16 08:15 pm 2.33 ft 520 cfs
Sat12/16 08:00 pm 2.31 ft 512 cfs
Sat12/16 07:45 pm 2.32 ft 516 cfs
Sat12/16 07:30 pm 2.3 ft 509 cfs
Sat12/16 07:15 pm 2.33 ft 520 cfs
Sat12/16 07:00 pm 2.31 ft 512 cfs
Sat12/16 06:45 pm 2.3 ft 509 cfs
Sat12/16 06:30 pm 2.31 ft 512 cfs
Sat12/16 06:15 pm 2.31 ft 512 cfs
Sat12/16 06:00 pm 2.31 ft 512 cfs
Sat12/16 05:45 pm 2.31 ft 512 cfs
Sat12/16 05:30 pm 2.31 ft 512 cfs
Sat12/16 05:15 pm 2.32 ft 516 cfs
Sat12/16 05:00 pm 2.31 ft 512 cfs
Sat12/16 04:45 pm 2.31 ft 512 cfs
Sat12/16 04:30 pm 2.34 ft 523 cfs
Sat12/16 04:15 pm 2.33 ft 520 cfs
Sat12/16 04:00 pm 2.31 ft 512 cfs
Sat12/16 03:45 pm 2.33 ft 520 cfs
Sat12/16 03:30 pm 2.31 ft 512 cfs
Sat12/16 03:15 pm 2.31 ft 512 cfs
Sat12/16 03:00 pm 2.31 ft 512 cfs
Sat12/16 02:45 pm 2.32 ft 516 cfs
Sat12/16 02:30 pm 2.32 ft 516 cfs
Sat12/16 01:15 pm 2.32 ft 516 cfs
Sat12/16 01:00 pm 2.33 ft 520 cfs
Sat12/16 12:45 pm 2.33 ft 520 cfs
Sat12/16 12:30 pm 2.34 ft 523 cfs
Sat12/16 12:15 pm 2.33 ft 520 cfs
Sat12/16 12:00 pm 2.33 ft 520 cfs
Sat12/16 11:45 am 2.34 ft 523 cfs
Sat12/16 11:30 am 2.33 ft 520 cfs
Sat12/16 11:15 am 2.36 ft 531 cfs
Sat12/16 11:00 am 2.34 ft 523 cfs
Sat12/16 10:45 am 2.35 ft 527 cfs
Sat12/16 10:30 am 2.34 ft 523 cfs
Sat12/16 10:15 am 2.34 ft 523 cfs
Sat12/16 10:00 am 2.36 ft 531 cfs
Sat12/16 09:45 am 2.33 ft 520 cfs
Sat12/16 09:30 am 2.34 ft 523 cfs
Sat12/16 09:15 am 2.36 ft 531 cfs
Sat12/16 09:00 am 2.35 ft 527 cfs
Sat12/16 08:45 am 2.34 ft 523 cfs
Sat12/16 08:30 am 2.35 ft 527 cfs
Sat12/16 08:15 am 2.37 ft 535 cfs
Sat12/16 08:00 am 2.34 ft 523 cfs
Sat12/16 07:45 am 2.38 ft 539 cfs
Sat12/16 07:30 am 2.37 ft 535 cfs
Sat12/16 07:15 am 2.38 ft 539 cfs
Sat12/16 07:00 am 2.38 ft 539 cfs
Sat12/16 06:45 am 2.38 ft 539 cfs
Sat12/16 06:30 am 2.38 ft 539 cfs
Sat12/16 06:15 am 2.4 ft 547 cfs
Sat12/16 06:00 am 2.39 ft 543 cfs
Sat12/16 05:45 am 2.41 ft 551 cfs
Sat12/16 05:30 am 2.38 ft 539 cfs
Sat12/16 05:15 am 2.39 ft 543 cfs
Sat12/16 05:00 am 2.38 ft 539 cfs
Sat12/16 04:45 am 2.38 ft 539 cfs
Sat12/16 04:30 am 2.38 ft 539 cfs
Sat12/16 04:15 am 2.41 ft 551 cfs
Sat12/16 04:00 am 2.38 ft 539 cfs
Sat12/16 03:45 am 2.38 ft 539 cfs
Sat12/16 03:30 am 2.39 ft 543 cfs

Latest Forecasts

Currently Forecasted Readings:
Sat12/16 04:00 pm 2.3 ft 508 cfs
Sat12/16 10:00 pm 2.43 ft 561 cfs
Sun12/17 04:00 am 2.63 ft 645 cfs
Sun12/17 10:00 am 3.44 ft 1066 cfs
Sun12/17 04:00 pm 4.84 ft 2186 cfs
Sun12/17 10:00 pm 6.56 ft 4332 cfs
Mon12/18 04:00 am 7.77 ft 6539 cfs
Mon12/18 10:00 am 7.41 ft 5816 cfs
Mon12/18 04:00 pm 6.94 ft 4945 cfs
Mon12/18 10:00 pm 6.38 ft 4065 cfs
Tue12/19 04:00 am 6.14 ft 3718 cfs
Tue12/19 10:00 am 6.45 ft 4162 cfs
Tue12/19 04:00 pm 7.13 ft 5271 cfs
Tue12/19 10:00 pm 7.23 ft 5467 cfs
Wed12/20 04:00 am 6.76 ft 4653 cfs
Wed12/20 10:00 am 6.16 ft 3746 cfs
Wed12/20 04:00 pm 5.61 ft 3025 cfs
Wed12/20 10:00 pm 5.11 ft 2462 cfs
Thu12/21 04:00 am 4.67 ft 2017 cfs
Thu12/21 10:00 am 4.33 ft 1720 cfs
Thu12/21 04:00 pm 4.05 ft 1490 cfs
Thu12/21 10:00 pm 3.82 ft 1320 cfs
Fri12/22 04:00 am 3.62 ft 1183 cfs
Fri12/22 10:00 am 3.45 ft 1072 cfs
Fri12/22 04:00 pm 3.29 ft 981 cfs
Fri12/22 10:00 pm 3.15 ft 901 cfs
Sat12/23 04:00 am 3.02 ft 832 cfs
Sat12/23 10:00 am 2.9 ft 771 cfs
Sat12/23 04:00 pm 2.79 ft 718 cfs
Sat12/23 10:00 pm 2.69 ft 669 cfs
Sun12/24 04:00 am 2.59 ft 627 cfs
Sun12/24 10:00 am 2.5 ft 588 cfs
Sun12/24 04:00 pm 2.41 ft 553 cfs
Sun12/24 10:00 pm 2.33 ft 520 cfs
Mon12/25 04:00 am 2.26 ft 493 cfs
Mon12/25 10:00 am 2.18 ft 465 cfs
Mon12/25 04:00 pm 2.11 ft 441 cfs
Mon12/25 10:00 pm 2.05 ft 419 cfs
Tue12/26 04:00 am 2.0 ft 404 cfs

Snoqualmie River flood gauge data supplied by the
National Weather Service Northwest River Forecast Center.

Sign up for Floodzilla alerts.